createdAt,value
2023-05-05T00:04:16.124Z,10.10
2023-05-05T00:08:05.391Z,10.20
2023-05-05T00:27:22.513Z,8.40
2023-05-05T00:31:12.579Z,9.00
2023-05-05T00:35:01.786Z,8.90
2023-05-05T00:54:24.059Z,9.20
2023-05-05T00:58:13.208Z,10.00
2023-05-05T01:01:53.346Z,9.10
2023-05-05T01:05:42.464Z,9.30
2023-05-05T01:09:38.903Z,9.80
2023-05-05T01:13:54.914Z,10.50
2023-05-05T01:21:40.082Z,9.20
2023-05-05T01:29:59.016Z,12.80
2023-05-05T01:33:45.827Z,8.30
2023-05-05T01:37:38.887Z,9.00
2023-05-05T01:57:03.403Z,9.80
2023-05-05T02:00:52.977Z,10.60
2023-05-05T02:04:36.700Z,9.00
2023-05-05T02:08:29.653Z,9.40
2023-05-05T02:28:06.948Z,10.30
2023-05-05T02:31:47.172Z,10.90
2023-05-05T02:35:39.364Z,11.00
2023-05-05T02:51:19.650Z,10.50
2023-05-05T02:55:07.461Z,8.50
2023-05-05T02:59:05.161Z,11.10
2023-05-05T03:03:24.486Z,9.50
2023-05-05T03:07:22.355Z,8.80
2023-05-05T03:11:17.444Z,8.40
2023-05-05T03:15:09.873Z,10.00
2023-05-05T03:30:59.207Z,10.40
2023-05-05T03:34:48.400Z,11.00
2023-05-05T03:38:27.740Z,9.50
2023-05-05T04:01:04.914Z,10.50
2023-05-05T04:04:53.931Z,9.20
2023-05-05T04:08:43.412Z,11.40
2023-05-05T04:20:27.005Z,9.00
2023-05-05T04:24:15.976Z,9.40
2023-05-05T04:27:57.794Z,8.30
2023-05-05T04:43:39.034Z,9.50
2023-05-05T04:47:27.941Z,12.30
2023-05-05T04:55:27.550Z,9.10
2023-05-05T04:59:16.726Z,10.30
2023-05-05T05:02:51.032Z,8.20
2023-05-05T05:06:40.214Z,9.80
2023-05-05T05:29:34.281Z,9.80
2023-05-05T05:33:23.241Z,11.80
2023-05-05T05:37:03.049Z,9.80
2023-05-05T06:00:18.034Z,11.50
2023-05-05T06:04:07.390Z,11.10
2023-05-05T06:07:45.746Z,10.60
2023-05-05T06:11:35.729Z,10.30
2023-05-05T06:26:59.205Z,8.80
2023-05-05T06:30:37.013Z,8.70
2023-05-05T06:34:16.359Z,12.90
2023-05-05T06:53:20.688Z,7.70
2023-05-05T06:57:09.676Z,8.70
2023-05-05T07:00:59.629Z,8.20
2023-05-05T07:04:15.050Z,7.30
2023-05-05T07:08:36.253Z,8.20
2023-05-05T07:12:25.423Z,8.80
2023-05-05T07:16:14.723Z,7.00
2023-05-05T07:39:08.391Z,7.30
2023-05-05T07:42:57.633Z,7.10
2023-05-05T07:46:47.692Z,6.80
2023-05-05T08:08:58.154Z,6.90
2023-05-05T08:12:47.177Z,5.70
2023-05-05T08:16:35.057Z,4.40
2023-05-05T08:19:58.894Z,3.90
2023-05-05T08:42:55.862Z,3.10
2023-05-05T08:46:45.108Z,3.40
2023-05-05T08:50:34.540Z,4.90
2023-05-05T08:54:29.134Z,4.30
2023-05-05T08:58:34.787Z,3.50
2023-05-05T09:03:00.135Z,4.30
2023-05-05T09:06:49.308Z,3.00
2023-05-05T09:10:30.606Z,3.60
2023-05-05T09:34:09.082Z,3.80
2023-05-05T09:38:06.895Z,3.60
2023-05-05T09:41:36.754Z,4.60
2023-05-05T09:45:27.980Z,2.80
2023-05-05T09:49:23.256Z,2.90
2023-05-05T09:53:07.514Z,3.50
2023-05-05T10:23:50.205Z,3.80
2023-05-05T10:27:39.450Z,4.80
2023-05-05T10:31:32.360Z,5.70
2023-05-05T10:35:42.833Z,3.50
2023-05-05T11:03:06.663Z,4.40
2023-05-05T11:07:01.492Z,3.40
2023-05-05T11:10:51.789Z,3.50
2023-05-05T11:14:40.774Z,4.00
2023-05-05T11:18:28.291Z,5.20
2023-05-05T11:26:44.993Z,4.50
2023-05-05T11:30:44.827Z,5.20
2023-05-05T11:34:32.595Z,4.50
2023-05-05T11:38:21.594Z,4.20
2023-05-05T11:42:13.497Z,3.00
2023-05-05T12:12:37.754Z,5.00
2023-05-05T12:16:30.032Z,4.00
2023-05-05T12:20:31.290Z,4.50
2023-05-05T12:24:27.380Z,6.20
2023-05-05T12:43:54.373Z,4.90
2023-05-05T12:47:28.929Z,4.30
2023-05-05T12:51:18.207Z,4.10
2023-05-05T12:55:10.106Z,4.10
2023-05-05T12:58:59.261Z,5.00
2023-05-05T13:21:45.515Z,3.10
2023-05-05T13:25:24.647Z,4.50
2023-05-05T13:44:47.507Z,4.10
2023-05-05T13:48:25.421Z,3.60
2023-05-05T13:52:14.397Z,4.50
2023-05-05T14:07:45.276Z,4.30
2023-05-05T14:11:23.636Z,4.20
2023-05-05T14:14:58.257Z,5.80
2023-05-05T14:26:38.881Z,4.90
2023-05-05T14:30:27.953Z,3.90
2023-05-05T14:45:37.471Z,3.20
2023-05-05T14:49:14.832Z,3.20
2023-05-05T14:52:54.313Z,4.30
2023-05-05T15:04:33.708Z,4.00
2023-05-05T15:08:15.301Z,4.90
2023-05-05T15:12:04.324Z,4.30
2023-05-05T15:20:10.327Z,5.00
2023-05-05T15:23:59.840Z,4.90
2023-05-05T15:46:35.968Z,4.30
2023-05-05T15:50:25.133Z,5.00
2023-05-05T15:54:05.192Z,4.10
2023-05-05T16:13:36.450Z,5.40
2023-05-05T16:17:25.777Z,6.90
2023-05-05T16:20:47.756Z,3.80
2023-05-05T16:43:24.616Z,6.20
2023-05-05T16:47:12.514Z,4.40
2023-05-05T16:51:01.577Z,3.70
2023-05-05T16:54:51.671Z,4.00
2023-05-05T16:58:45.554Z,5.30
2023-05-05T17:14:16.372Z,5.10
2023-05-05T17:18:05.576Z,4.60
2023-05-05T17:33:44.487Z,4.40
2023-05-05T17:37:34.316Z,5.50
2023-05-05T17:41:19.929Z,4.10
2023-05-05T18:00:48.897Z,5.90
2023-05-05T18:04:37.860Z,4.10
2023-05-05T18:08:27.684Z,5.20
2023-05-05T18:31:02.995Z,4.70
2023-05-05T18:34:52.343Z,5.70
2023-05-05T18:38:14.375Z,5.50
2023-05-05T18:42:03.455Z,4.40
2023-05-05T19:01:22.831Z,11.40
2023-05-05T19:05:11.433Z,11.60
2023-05-05T19:20:49.714Z,11.60
2023-05-05T19:24:18.621Z,10.40
2023-05-05T19:28:07.966Z,14.20
2023-05-05T19:31:58.429Z,13.40
2023-05-05T19:51:05.703Z,11.40
2023-05-05T19:54:54.769Z,11.90
2023-05-05T19:58:43.328Z,12.90
2023-05-05T20:17:57.624Z,12.30
2023-05-05T20:21:34.476Z,11.60
2023-05-05T20:25:10.945Z,14.00
2023-05-05T20:29:00.166Z,9.70
2023-05-05T20:48:25.953Z,11.60
2023-05-05T20:51:43.589Z,13.00
2023-05-05T20:55:25.396Z,11.00
2023-05-05T20:59:15.559Z,14.90
2023-05-05T21:02:48.928Z,15.70
2023-05-05T21:14:40.561Z,14.60
2023-05-05T21:18:30.452Z,14.60
2023-05-05T21:37:48.849Z,16.20
2023-05-05T21:41:27.843Z,13.10
2023-05-05T21:45:06.980Z,13.30
2023-05-05T22:04:22.689Z,12.20
2023-05-05T22:08:11.454Z,13.20
2023-05-05T22:11:59.092Z,13.10
2023-05-05T22:34:28.948Z,10.20
2023-05-05T22:38:17.999Z,9.30
2023-05-05T22:57:44.858Z,8.10
2023-05-05T23:01:33.684Z,6.30
2023-05-05T23:05:23.576Z,9.20
2023-05-05T23:09:45.895Z,9.70
2023-05-05T23:13:34.799Z,8.40
2023-05-05T23:17:24.082Z,8.40
2023-05-05T23:20:47.166Z,7.80
2023-05-05T23:39:45.952Z,7.60
2023-05-05T23:43:35.828Z,7.10
